<?xml version='1.0' encoding='UTF-8'?><gpx version="1.1" creator="JPX - https://github.com/jenetics/jpx" xmlns="http://www.topografix.com/GPX/1/1"><trk><trkseg><trkpt lat="39.611533140282205" lon="16.630773890482068"><ele>15.0</ele><time>2026-04-06T07:27:44Z</time></trkpt><trkpt lat="39.61144951602493" lon="16.630765258996405"><ele>15.0</ele><time>2026-04-06T07:27:47Z</time></trkpt><trkpt lat="39.61138592899921" lon="16.63083367495439"><ele>15.0</ele><time>2026-04-06T07:27:59Z</time></trkpt><trkpt lat="39.61136539872025" lon="16.630913048299764"><ele>15.0</ele><time>2026-04-06T07:28:00Z</time></trkpt><trkpt lat="39.61135791412088" lon="16.631014367920464"><ele>15.0</ele><time>2026-04-06T07:28:01Z</time></trkpt><trkpt lat="39.61135699017021" lon="16.631152841789593"><ele>15.0</ele><time>2026-04-06T07:28:02Z</time></trkpt><trkpt lat="39.61135242498377" lon="16.631280268784412"><ele>15.2</ele><time>2026-04-06T07:28:03Z</time></trkpt><trkpt lat="39.61134536714898" lon="16.631423840803905"><ele>15.4</ele><time>2026-04-06T07:28:04Z</time></trkpt><trkpt lat="39.61133688650498" lon="16.631566959671247"><ele>15.600000000000001</ele><time>2026-04-06T07:28:05Z</time></trkpt><trkpt lat="39.61133033110271" lon="16.6317094030241"><ele>15.8</ele><time>2026-04-06T07:28:06Z</time></trkpt><trkpt lat="39.611323283342145" lon="16.631855191071764"><ele>16.0</ele><time>2026-04-06T07:28:07Z</time></trkpt><trkpt lat="39.61131438923199" lon="16.631999212784482"><ele>16.0</ele><time>2026-04-06T07:28:08Z</time></trkpt><trkpt lat="39.611307257748194" lon="16.63214247238291"><ele>16.0</ele><time>2026-04-06T07:28:09Z</time></trkpt><trkpt lat="39.611300902778495" lon="16.632281313419632"><ele>16.0</ele><time>2026-04-06T07:28:10Z</time></trkpt><trkpt lat="39.611292872448374" lon="16.632418507853174"><ele>16.0</ele><time>2026-04-06T07:28:11Z</time></trkpt><trkpt lat="39.61128447481454" lon="16.63256149490467"><ele>16.0</ele><time>2026-04-06T07:28:12Z</time></trkpt><trkpt lat="39.61127801575481" lon="16.63270008306501"><ele>16.0</ele><time>2026-04-06T07:28:13Z</time></trkpt><trkpt lat="39.61127482800114" lon="16.63284521205291"><ele>14.0</ele><time>2026-04-06T07:28:14Z</time></trkpt><trkpt lat="39.61126531760707" lon="16.63299536255012"><ele>14.0</ele><time>2026-04-06T07:28:15Z</time></trkpt><trkpt lat="39.611257305696164" lon="16.633148314563158"><ele>14.0</ele><time>2026-04-06T07:28:16Z</time></trkpt></trkseg></trk></gpx>